sensor_id;sensor_type;location;lat;lon;timestamp;temperature;humidity
1135;DHT22;556;53.550;10.048;2022-09-21T00:00:32;13.40;46.10
1135;DHT22;556;53.550;10.048;2022-09-21T00:03:00;13.30;46.10
1135;DHT22;556;53.550;10.048;2022-09-21T00:05:28;13.30;46.20
1135;DHT22;556;53.550;10.048;2022-09-21T00:08:00;13.30;45.90
1135;DHT22;556;53.550;10.048;2022-09-21T00:10:28;13.30;45.90
1135;DHT22;556;53.550;10.048;2022-09-21T00:12:56;13.30;46.40
1135;DHT22;556;53.550;10.048;2022-09-21T00:15:27;13.20;46.30
1135;DHT22;556;53.550;10.048;2022-09-21T00:17:55;13.30;46.50
1135;DHT22;556;53.550;10.048;2022-09-21T00:20:23;13.20;46.00
1135;DHT22;556;53.550;10.048;2022-09-21T00:22:51;13.20;46.50
1135;DHT22;556;53.550;10.048;2022-09-21T00:25:20;13.20;46.60
1135;DHT22;556;53.550;10.048;2022-09-21T00:27:47;13.10;46.10
1135;DHT22;556;53.550;10.048;2022-09-21T00:30:16;13.20;46.70
1135;DHT22;556;53.550;10.048;2022-09-21T00:32:43;13.20;46.40
1135;DHT22;556;53.550;10.048;2022-09-21T00:35:10;13.20;46.80
1135;DHT22;556;53.550;10.048;2022-09-21T00:37:38;13.20;46.90
1135;DHT22;556;53.550;10.048;2022-09-21T00:40:07;13.10;46.30
1135;DHT22;556;53.550;10.048;2022-09-21T00:42:36;13.20;47.00
1135;DHT22;556;53.550;10.048;2022-09-21T00:45:05;13.20;47.10
1135;DHT22;556;53.550;10.048;2022-09-21T00:47:34;13.20;47.10
1135;DHT22;556;53.550;10.048;2022-09-21T00:50:05;13.10;46.60
1135;DHT22;556;53.550;10.048;2022-09-21T00:52:38;13.10;47.10
1135;DHT22;556;53.550;10.048;2022-09-21T00:55:10;13.20;47.20
1135;DHT22;556;53.550;10.048;2022-09-21T00:57:41;13.10;47.10
1135;DHT22;556;53.550;10.048;2022-09-21T01:00:10;13.10;46.70
1135;DHT22;556;53.550;10.048;2022-09-21T01:02:40;13.10;47.20
1135;DHT22;556;53.550;10.048;2022-09-21T01:05:09;13.10;47.30
1135;DHT22;556;53.550;10.048;2022-09-21T01:07:39;13.00;46.90
1135;DHT22;556;53.550;10.048;2022-09-21T01:10:10;12.90;47.40
1135;DHT22;556;53.550;10.048;2022-09-21T01:12:49;13.00;47.50
1135;DHT22;556;53.550;10.048;2022-09-21T01:15:31;12.90;47.50
1135;DHT22;556;53.550;10.048;2022-09-21T01:18:10;12.90;47.10
1135;DHT22;556;53.550;10.048;2022-09-21T01:24:04;12.90;47.10
1135;DHT22;556;53.550;10.048;2022-09-21T01:29:28;12.90;47.60
1135;DHT22;556;53.550;10.048;2022-09-21T01:32:02;12.90;47.60
1135;DHT22;556;53.550;10.048;2022-09-21T01:34:33;13.00;47.70
1135;DHT22;556;53.550;10.048;2022-09-21T01:37:06;12.90;47.70
1135;DHT22;556;53.550;10.048;2022-09-21T01:39:36;12.90;47.70
1135;DHT22;556;53.550;10.048;2022-09-21T01:42:08;12.90;47.40
1135;DHT22;556;53.550;10.048;2022-09-21T01:44:39;12.90;47.90
1135;DHT22;556;53.550;10.048;2022-09-21T01:47:10;12.90;48.00
1135;DHT22;556;53.550;10.048;2022-09-21T01:49:42;12.80;47.90
1135;DHT22;556;53.550;10.048;2022-09-21T01:52:14;12.80;47.90
1135;DHT22;556;53.550;10.048;2022-09-21T01:54:48;12.80;48.00
1135;DHT22;556;53.550;10.048;2022-09-21T01:57:22;12.80;48.10
1135;DHT22;556;53.550;10.048;2022-09-21T01:59:54;12.80;47.60
1135;DHT22;556;53.550;10.048;2022-09-21T02:02:27;12.70;47.60
1135;DHT22;556;53.550;10.048;2022-09-21T02:04:58;12.70;47.60
1135;DHT22;556;53.550;10.048;2022-09-21T02:07:25;12.70;48.10
1135;DHT22;556;53.550;10.048;2022-09-21T02:09:53;12.70;48.10
1135;DHT22;556;53.550;10.048;2022-09-21T02:12:21;12.60;47.70
1135;DHT22;556;53.550;10.048;2022-09-21T02:14:49;12.60;48.20
1135;DHT22;556;53.550;10.048;2022-09-21T02:17:31;12.60;48.20
1135;DHT22;556;53.550;10.048;2022-09-21T02:20:07;12.60;47.80
1135;DHT22;556;53.550;10.048;2022-09-21T02:22:43;12.50;47.80
1135;DHT22;556;53.550;10.048;2022-09-21T02:25:17;12.40;48.30
1135;DHT22;556;53.550;10.048;2022-09-21T02:27:51;12.40;47.90
1135;DHT22;556;53.550;10.048;2022-09-21T02:30:21;12.50;48.40
1135;DHT22;556;53.550;10.048;2022-09-21T02:32:57;12.40;47.90
1135;DHT22;556;53.550;10.048;2022-09-21T02:38:06;12.40;48.00
1135;DHT22;556;53.550;10.048;2022-09-21T02:40:38;12.40;48.00
1135;DHT22;556;53.550;10.048;2022-09-21T02:43:10;12.40;48.10
1135;DHT22;556;53.550;10.048;2022-09-21T02:45:42;12.30;48.00
1135;DHT22;556;53.550;10.048;2022-09-21T02:48:17;12.30;48.10
1135;DHT22;556;53.550;10.048;2022-09-21T02:50:47;12.30;48.20
1135;DHT22;556;53.550;10.048;2022-09-21T02:53:22;12.20;48.50
1135;DHT22;556;53.550;10.048;2022-09-21T02:55:51;12.20;48.10
1135;DHT22;556;53.550;10.048;2022-09-21T02:58:20;12.30;48.70
1135;DHT22;556;53.550;10.048;2022-09-21T03:00:48;12.30;48.70
1135;DHT22;556;53.550;10.048;2022-09-21T03:03:18;12.20;48.70
1135;DHT22;556;53.550;10.048;2022-09-21T03:05:48;12.30;49.30
1135;DHT22;556;53.550;10.048;2022-09-21T03:08:16;12.30;48.40
1135;DHT22;556;53.550;10.048;2022-09-21T03:10:44;12.30;48.40
1135;DHT22;556;53.550;10.048;2022-09-21T03:13:13;12.30;48.50
1135;DHT22;556;53.550;10.048;2022-09-21T03:15:40;12.30;48.50
1135;DHT22;556;53.550;10.048;2022-09-21T03:20:39;12.30;48.50
1135;DHT22;556;53.550;10.048;2022-09-21T03:23:07;12.30;49.00
1135;DHT22;556;53.550;10.048;2022-09-21T03:25:34;12.30;48.60
1135;DHT22;556;53.550;10.048;2022-09-21T03:28:04;12.30;48.70
1135;DHT22;556;53.550;10.048;2022-09-21T03:30:31;12.30;48.70
1135;DHT22;556;53.550;10.048;2022-09-21T03:33:00;12.20;48.70
1135;DHT22;556;53.550;10.048;2022-09-21T03:35:32;12.30;49.20
1135;DHT22;556;53.550;10.048;2022-09-21T03:38:01;12.30;48.80
1135;DHT22;556;53.550;10.048;2022-09-21T03:40:31;12.30;48.80
1135;DHT22;556;53.550;10.048;2022-09-21T03:42:58;12.20;48.70
1135;DHT22;556;53.550;10.048;2022-09-21T03:45:26;12.30;49.30
1135;DHT22;556;53.550;10.048;2022-09-21T03:47:54;12.20;48.80
1135;DHT22;556;53.550;10.048;2022-09-21T03:50:21;12.20;48.90
1135;DHT22;556;53.550;10.048;2022-09-21T03:52:49;12.10;48.80
1135;DHT22;556;53.550;10.048;2022-09-21T03:55:17;12.10;48.80
1135;DHT22;556;53.550;10.048;2022-09-21T03:57:44;12.10;49.30
1135;DHT22;556;53.550;10.048;2022-09-21T04:00:12;12.10;48.90
1135;DHT22;556;53.550;10.048;2022-09-21T04:02:40;12.10;48.90
1135;DHT22;556;53.550;10.048;2022-09-21T04:10:05;12.00;49.00
1135;DHT22;556;53.550;10.048;2022-09-21T04:12:34;12.00;49.00
1135;DHT22;556;53.550;10.048;2022-09-21T04:15:02;12.00;49.50
1135;DHT22;556;53.550;10.048;2022-09-21T04:17:32;12.10;49.60
1135;DHT22;556;53.550;10.048;2022-09-21T04:20:02;12.10;49.20
1135;DHT22;556;53.550;10.048;2022-09-21T04:22:29;12.10;49.20
1135;DHT22;556;53.550;10.048;2022-09-21T04:24:57;12.10;49.70
1135;DHT22;556;53.550;10.048;2022-09-21T04:27:24;12.10;49.30
1135;DHT22;556;53.550;10.048;2022-09-21T04:29:53;12.10;49.30
1135;DHT22;556;53.550;10.048;2022-09-21T04:32:20;11.30;48.70
1135;DHT22;556;53.550;10.048;2022-09-21T04:34:47;12.10;49.40
1135;DHT22;556;53.550;10.048;2022-09-21T04:37:15;12.10;49.40
1135;DHT22;556;53.550;10.048;2022-09-21T04:39:42;12.10;49.40
1135;DHT22;556;53.550;10.048;2022-09-21T04:42:10;12.00;49.40
1135;DHT22;556;53.550;10.048;2022-09-21T04:44:38;12.00;49.40
1135;DHT22;556;53.550;10.048;2022-09-21T04:47:07;12.00;49.50
1135;DHT22;556;53.550;10.048;2022-09-21T04:49:34;11.90;49.50
1135;DHT22;556;53.550;10.048;2022-09-21T04:52:01;11.90;49.50
1135;DHT22;556;53.550;10.048;2022-09-21T04:54:29;11.90;49.50
1135;DHT22;556;53.550;10.048;2022-09-21T04:56:56;11.90;49.60
1135;DHT22;556;53.550;10.048;2022-09-21T04:59:24;11.90;49.60
1135;DHT22;556;53.550;10.048;2022-09-21T05:01:51;11.90;49.70
1135;DHT22;556;53.550;10.048;2022-09-21T05:04:19;11.80;49.60
1135;DHT22;556;53.550;10.048;2022-09-21T05:06:47;11.80;49.70
1135;DHT22;556;53.550;10.048;2022-09-21T05:09:15;11.80;49.70
1135;DHT22;556;53.550;10.048;2022-09-21T05:12:00;11.80;49.60
1135;DHT22;556;53.550;10.048;2022-09-21T05:14:27;11.80;49.70
1135;DHT22;556;53.550;10.048;2022-09-21T05:16:55;11.80;49.70
1135;DHT22;556;53.550;10.048;2022-09-21T05:19:24;11.80;49.70
1135;DHT22;556;53.550;10.048;2022-09-21T05:21:51;11.80;49.70
1135;DHT22;556;53.550;10.048;2022-09-21T05:24:18;11.80;49.60
1135;DHT22;556;53.550;10.048;2022-09-21T05:26:45;11.90;49.70
1135;DHT22;556;53.550;10.048;2022-09-21T05:29:12;11.90;50.10
1135;DHT22;556;53.550;10.048;2022-09-21T05:31:44;11.90;49.70
1135;DHT22;556;53.550;10.048;2022-09-21T05:34:23;12.00;49.70
1135;DHT22;556;53.550;10.048;2022-09-21T05:36:59;12.00;49.60
1135;DHT22;556;53.550;10.048;2022-09-21T05:39:28;12.10;50.10
1135;DHT22;556;53.550;10.048;2022-09-21T05:41:55;12.10;50.00
1135;DHT22;556;53.550;10.048;2022-09-21T05:44:23;12.10;49.70
1135;DHT22;556;53.550;10.048;2022-09-21T05:46:57;12.20;49.80
1135;DHT22;556;53.550;10.048;2022-09-21T05:49:35;12.20;49.70
1135;DHT22;556;53.550;10.048;2022-09-21T05:52:13;12.30;49.80
1135;DHT22;556;53.550;10.048;2022-09-21T05:54:54;12.30;49.80
1135;DHT22;556;53.550;10.048;2022-09-21T05:57:30;12.30;49.70
1135;DHT22;556;53.550;10.048;2022-09-21T06:00:10;12.40;49.80
1135;DHT22;556;53.550;10.048;2022-09-21T06:02:53;12.40;49.80
1135;DHT22;556;53.550;10.048;2022-09-21T06:05:24;12.50;50.20
1135;DHT22;556;53.550;10.048;2022-09-21T06:07:53;12.60;49.80
1135;DHT22;556;53.550;10.048;2022-09-21T06:10:20;12.60;49.80
1135;DHT22;556;53.550;10.048;2022-09-21T06:12:48;12.70;49.90
1135;DHT22;556;53.550;10.048;2022-09-21T06:15:16;12.70;50.30
1135;DHT22;556;53.550;10.048;2022-09-21T06:17:43;12.80;50.30
1135;DHT22;556;53.550;10.048;2022-09-21T06:20:10;12.90;50.00
1135;DHT22;556;53.550;10.048;2022-09-21T06:22:37;12.80;49.90
1135;DHT22;556;53.550;10.048;2022-09-21T06:25:06;12.90;50.00
1135;DHT22;556;53.550;10.048;2022-09-21T06:27:34;12.90;50.00
1135;DHT22;556;53.550;10.048;2022-09-21T06:30:01;13.00;50.10
1135;DHT22;556;53.550;10.048;2022-09-21T06:32:28;13.10;50.20
1135;DHT22;556;53.550;10.048;2022-09-21T06:34:55;13.20;50.10
1135;DHT22;556;53.550;10.048;2022-09-21T06:37:22;13.30;50.20
1135;DHT22;556;53.550;10.048;2022-09-21T06:39:49;13.30;50.60
1135;DHT22;556;53.550;10.048;2022-09-21T06:42:18;13.40;50.20
1135;DHT22;556;53.550;10.048;2022-09-21T06:44:45;13.40;50.30
1135;DHT22;556;53.550;10.048;2022-09-21T06:47:12;13.40;50.80
1135;DHT22;556;53.550;10.048;2022-09-21T06:49:39;13.60;50.80
1135;DHT22;556;53.550;10.048;2022-09-21T06:52:06;13.60;50.30
1135;DHT22;556;53.550;10.048;2022-09-21T06:54:34;13.70;50.80
1135;DHT22;556;53.550;10.048;2022-09-21T06:57:01;13.80;50.40
1135;DHT22;556;53.550;10.048;2022-09-21T06:59:30;13.80;50.80
1135;DHT22;556;53.550;10.048;2022-09-21T07:01:57;13.90;50.50
1135;DHT22;556;53.550;10.048;2022-09-21T07:04:25;14.00;50.60
1135;DHT22;556;53.550;10.048;2022-09-21T07:06:54;14.10;50.50
1135;DHT22;556;53.550;10.048;2022-09-21T07:09:21;14.20;50.60
1135;DHT22;556;53.550;10.048;2022-09-21T07:11:48;14.30;50.60
1135;DHT22;556;53.550;10.048;2022-09-21T07:14:15;14.40;50.60
1135;DHT22;556;53.550;10.048;2022-09-21T07:16:43;14.50;50.70
1135;DHT22;556;53.550;10.048;2022-09-21T07:19:10;14.50;51.20
1135;DHT22;556;53.550;10.048;2022-09-21T07:21:37;14.60;51.20
1135;DHT22;556;53.550;10.048;2022-09-21T07:24:05;14.70;50.80
1135;DHT22;556;53.550;10.048;2022-09-21T07:26:32;14.70;50.80
1135;DHT22;556;53.550;10.048;2022-09-21T07:28:59;14.80;50.90
1135;DHT22;556;53.550;10.048;2022-09-21T07:31:26;14.90;50.90
1135;DHT22;556;53.550;10.048;2022-09-21T07:33:56;15.10;51.40
1135;DHT22;556;53.550;10.048;2022-09-21T07:36:24;15.20;50.90
1135;DHT22;556;53.550;10.048;2022-09-21T07:38:51;15.20;51.30
1135;DHT22;556;53.550;10.048;2022-09-21T07:41:19;15.30;50.90
1135;DHT22;556;53.550;10.048;2022-09-21T07:43:46;15.40;51.50
1135;DHT22;556;53.550;10.048;2022-09-21T07:46:14;15.50;51.40
1135;DHT22;556;53.550;10.048;2022-09-21T07:48:41;15.50;51.50
1135;DHT22;556;53.550;10.048;2022-09-21T07:51:12;15.70;51.20
1135;DHT22;556;53.550;10.048;2022-09-21T07:53:43;15.70;51.10
1135;DHT22;556;53.550;10.048;2022-09-21T07:56:12;15.80;51.20
1135;DHT22;556;53.550;10.048;2022-09-21T07:58:40;15.80;51.70
1135;DHT22;556;53.550;10.048;2022-09-21T08:01:26;15.80;51.80
1135;DHT22;556;53.550;10.048;2022-09-21T08:03:55;16.00;51.90
1135;DHT22;556;53.550;10.048;2022-09-21T08:06:26;16.10;51.80
1135;DHT22;556;53.550;10.048;2022-09-21T08:08:54;16.10;51.80
1135;DHT22;556;53.550;10.048;2022-09-21T08:11:22;16.20;51.40
1135;DHT22;556;53.550;10.048;2022-09-21T08:13:52;16.20;51.90
1135;DHT22;556;53.550;10.048;2022-09-21T08:16:19;16.30;51.50
1135;DHT22;556;53.550;10.048;2022-09-21T08:18:47;16.40;52.00
1135;DHT22;556;53.550;10.048;2022-09-21T08:21:16;16.40;51.60
1135;DHT22;556;53.550;10.048;2022-09-21T08:23:45;16.50;51.60
1135;DHT22;556;53.550;10.048;2022-09-21T08:26:15;16.50;52.00
1135;DHT22;556;53.550;10.048;2022-09-21T08:28:44;16.60;51.60
1135;DHT22;556;53.550;10.048;2022-09-21T08:31:14;16.60;51.60
1135;DHT22;556;53.550;10.048;2022-09-21T08:33:42;16.70;52.10
1135;DHT22;556;53.550;10.048;2022-09-21T08:36:09;16.80;51.60
1135;DHT22;556;53.550;10.048;2022-09-21T08:38:37;16.80;52.00
1135;DHT22;556;53.550;10.048;2022-09-21T08:41:14;16.90;52.00
1135;DHT22;556;53.550;10.048;2022-09-21T08:43:44;17.00;51.60
1135;DHT22;556;53.550;10.048;2022-09-21T08:46:17;17.10;51.60
1135;DHT22;556;53.550;10.048;2022-09-21T08:48:48;17.10;51.60
1135;DHT22;556;53.550;10.048;2022-09-21T08:51:20;17.10;51.60
1135;DHT22;556;53.550;10.048;2022-09-21T08:53:51;17.20;52.10
1135;DHT22;556;53.550;10.048;2022-09-21T08:56:23;17.20;51.50
1135;DHT22;556;53.550;10.048;2022-09-21T08:58:51;17.30;52.10
1135;DHT22;556;53.550;10.048;2022-09-21T09:01:32;17.40;52.10
1135;DHT22;556;53.550;10.048;2022-09-21T09:04:25;17.40;51.60
1135;DHT22;556;53.550;10.048;2022-09-21T09:07:08;17.50;52.10
1135;DHT22;556;53.550;10.048;2022-09-21T09:09:48;17.50;51.50
1135;DHT22;556;53.550;10.048;2022-09-21T09:12:31;17.60;51.50
1135;DHT22;556;53.550;10.048;2022-09-21T09:15:13;17.60;51.80
1135;DHT22;556;53.550;10.048;2022-09-21T09:17:49;17.80;51.20
1135;DHT22;556;53.550;10.048;2022-09-21T09:20:23;17.90;51.20
1135;DHT22;556;53.550;10.048;2022-09-21T09:23:05;18.00;51.10
1135;DHT22;556;53.550;10.048;2022-09-21T09:25:36;18.00;51.60
1135;DHT22;556;53.550;10.048;2022-09-21T09:28:19;18.10;51.00
1135;DHT22;556;53.550;10.048;2022-09-21T09:30:56;18.20;50.80
1135;DHT22;556;53.550;10.048;2022-09-21T09:33:29;18.30;50.60
1135;DHT22;556;53.550;10.048;2022-09-21T09:36:02;18.30;51.10
1135;DHT22;556;53.550;10.048;2022-09-21T09:38:35;18.40;51.00
1135;DHT22;556;53.550;10.048;2022-09-21T09:41:25;18.70;50.20
1135;DHT22;556;53.550;10.048;2022-09-21T09:44:25;18.80;50.00
1135;DHT22;556;53.550;10.048;2022-09-21T09:47:22;18.80;50.40
1135;DHT22;556;53.550;10.048;2022-09-21T09:50:00;18.80;49.70
1135;DHT22;556;53.550;10.048;2022-09-21T09:52:50;18.90;50.20
1135;DHT22;556;53.550;10.048;2022-09-21T09:55:22;19.00;50.10
1135;DHT22;556;53.550;10.048;2022-09-21T09:58:16;19.20;49.30
1135;DHT22;556;53.550;10.048;2022-09-21T10:01:06;19.30;49.80
1135;DHT22;556;53.550;10.048;2022-09-21T10:03:33;19.40;49.60
1135;DHT22;556;53.550;10.048;2022-09-21T10:06:30;19.60;49.40
1135;DHT22;556;53.550;10.048;2022-09-21T10:08:57;19.80;49.10
1135;DHT22;556;53.550;10.048;2022-09-21T10:11:34;20.30;48.30
1135;DHT22;556;53.550;10.048;2022-09-21T10:14:09;20.40;48.10
1135;DHT22;556;53.550;10.048;2022-09-21T10:17:05;20.60;48.00
1135;DHT22;556;53.550;10.048;2022-09-21T10:19:58;20.60;47.90
1135;DHT22;556;53.550;10.048;2022-09-21T10:22:47;20.70;48.40
1135;DHT22;556;53.550;10.048;2022-09-21T10:25:37;20.70;48.30
1135;DHT22;556;53.550;10.048;2022-09-21T10:28:24;20.60;47.60
1135;DHT22;556;53.550;10.048;2022-09-21T10:31:22;20.70;47.50
1135;DHT22;556;53.550;10.048;2022-09-21T10:34:13;20.80;47.90
1135;DHT22;556;53.550;10.048;2022-09-21T10:37:25;20.70;47.10
1135;DHT22;556;53.550;10.048;2022-09-21T10:40:27;20.80;47.10
1135;DHT22;556;53.550;10.048;2022-09-21T10:43:23;20.90;47.40
1135;DHT22;556;53.550;10.048;2022-09-21T10:46:16;21.00;47.10
1135;DHT22;556;53.550;10.048;2022-09-21T10:49:15;21.10;46.90
1135;DHT22;556;53.550;10.048;2022-09-21T10:52:03;21.20;46.60
1135;DHT22;556;53.550;10.048;2022-09-21T10:54:53;21.30;45.70
1135;DHT22;556;53.550;10.048;2022-09-21T10:57:42;21.30;45.70
1135;DHT22;556;53.550;10.048;2022-09-21T11:00:31;21.30;45.60
1135;DHT22;556;53.550;10.048;2022-09-21T11:03:31;21.30;46.00
1135;DHT22;556;53.550;10.048;2022-09-21T11:06:23;21.30;45.30
1135;DHT22;556;53.550;10.048;2022-09-21T11:09:13;21.30;45.30
1135;DHT22;556;53.550;10.048;2022-09-21T11:12:07;21.30;45.30
1135;DHT22;556;53.550;10.048;2022-09-21T11:14:59;21.30;45.30
1135;DHT22;556;53.550;10.048;2022-09-21T11:17:50;21.30;45.60
1135;DHT22;556;53.550;10.048;2022-09-21T11:20:44;21.40;44.90
1135;DHT22;556;53.550;10.048;2022-09-21T11:23:43;21.40;44.80
1135;DHT22;556;53.550;10.048;2022-09-21T11:26:36;21.20;44.70
1135;DHT22;556;53.550;10.048;2022-09-21T11:29:30;21.20;44.60
1135;DHT22;556;53.550;10.048;2022-09-21T11:32:32;21.20;44.50
1135;DHT22;556;53.550;10.048;2022-09-21T11:35:33;21.20;44.10
1135;DHT22;556;53.550;10.048;2022-09-21T11:38:30;21.20;44.00
1135;DHT22;556;53.550;10.048;2022-09-21T11:41:45;21.30;43.90
1135;DHT22;556;53.550;10.048;2022-09-21T11:44:43;21.40;43.60
1135;DHT22;556;53.550;10.048;2022-09-21T11:47:46;21.60;43.40
1135;DHT22;556;53.550;10.048;2022-09-21T11:50:44;21.70;43.30
1135;DHT22;556;53.550;10.048;2022-09-21T11:53:40;21.80;42.90
1135;DHT22;556;53.550;10.048;2022-09-21T11:56:42;21.80;42.80
1135;DHT22;556;53.550;10.048;2022-09-21T11:59:42;21.80;42.60
1135;DHT22;556;53.550;10.048;2022-09-21T12:06:15;21.90;42.30
1135;DHT22;556;53.550;10.048;2022-09-21T12:09:19;22.00;42.70
1135;DHT22;556;53.550;10.048;2022-09-21T12:12:15;22.00;42.00
1135;DHT22;556;53.550;10.048;2022-09-21T12:15:08;21.90;42.00
1135;DHT22;556;53.550;10.048;2022-09-21T12:18:02;21.80;41.90
1135;DHT22;556;53.550;10.048;2022-09-21T12:20:54;21.50;41.90
1135;DHT22;556;53.550;10.048;2022-09-21T12:23:45;21.50;41.90
1135;DHT22;556;53.550;10.048;2022-09-21T12:26:37;21.40;41.80
1135;DHT22;556;53.550;10.048;2022-09-21T12:29:30;21.40;41.80
1135;DHT22;556;53.550;10.048;2022-09-21T12:32:22;21.40;42.20
1135;DHT22;556;53.550;10.048;2022-09-21T12:35:14;21.40;41.40
1135;DHT22;556;53.550;10.048;2022-09-21T12:38:04;21.40;41.30
1135;DHT22;556;53.550;10.048;2022-09-21T12:40:54;21.50;41.30
1135;DHT22;556;53.550;10.048;2022-09-21T12:43:47;21.50;41.10
1135;DHT22;556;53.550;10.048;2022-09-21T12:46:37;21.60;41.00
1135;DHT22;556;53.550;10.048;2022-09-21T12:49:27;21.70;41.30
1135;DHT22;556;53.550;10.048;2022-09-21T12:52:20;21.60;40.60
1135;DHT22;556;53.550;10.048;2022-09-21T12:55:20;21.80;40.60
1135;DHT22;556;53.550;10.048;2022-09-21T12:58:16;22.30;40.50
1135;DHT22;556;53.550;10.048;2022-09-21T13:01:11;22.90;40.60
1135;DHT22;556;53.550;10.048;2022-09-21T13:04:10;24.00;41.00
1135;DHT22;556;53.550;10.048;2022-09-21T13:10:18;25.50;41.20
1135;DHT22;556;53.550;10.048;2022-09-21T13:13:15;28.20;39.60
1135;DHT22;556;53.550;10.048;2022-09-21T13:16:02;28.50;39.10
1135;DHT22;556;53.550;10.048;2022-09-21T13:18:54;29.50;38.60
1135;DHT22;556;53.550;10.048;2022-09-21T13:21:42;29.90;38.80
1135;DHT22;556;53.550;10.048;2022-09-21T13:24:29;30.60;37.50
1135;DHT22;556;53.550;10.048;2022-09-21T13:27:15;30.80;37.10
1135;DHT22;556;53.550;10.048;2022-09-21T13:30:17;31.40;36.30
1135;DHT22;556;53.550;10.048;2022-09-21T13:32:51;31.40;36.80
1135;DHT22;556;53.550;10.048;2022-09-21T13:35:59;31.90;35.40
1135;DHT22;556;53.550;10.048;2022-09-21T13:38:30;31.90;35.70
1135;DHT22;556;53.550;10.048;2022-09-21T13:41:01;32.30;35.80
1135;DHT22;556;53.550;10.048;2022-09-21T13:43:45;32.60;34.40
1135;DHT22;556;53.550;10.048;2022-09-21T13:46:44;32.60;34.50
1135;DHT22;556;53.550;10.048;2022-09-21T13:49:28;32.60;33.70
1135;DHT22;556;53.550;10.048;2022-09-21T13:51:59;32.80;33.70
1135;DHT22;556;53.550;10.048;2022-09-21T13:54:32;32.60;33.00
1135;DHT22;556;53.550;10.048;2022-09-21T13:59:35;32.70;32.60
1135;DHT22;556;53.550;10.048;2022-09-21T14:02:18;32.70;32.90
1135;DHT22;556;53.550;10.048;2022-09-21T14:04:49;32.40;32.30
1135;DHT22;556;53.550;10.048;2022-09-21T14:07:17;31.80;31.70
1135;DHT22;556;53.550;10.048;2022-09-21T14:09:54;31.90;32.30
1135;DHT22;556;53.550;10.048;2022-09-21T14:12:24;32.20;31.60
1135;DHT22;556;53.550;10.048;2022-09-21T14:18:08;32.80;30.60
1135;DHT22;556;53.550;10.048;2022-09-21T14:21:07;32.90;30.70
1135;DHT22;556;53.550;10.048;2022-09-21T14:23:35;33.20;30.60
1135;DHT22;556;53.550;10.048;2022-09-21T14:29:20;31.90;29.50
1135;DHT22;556;53.550;10.048;2022-09-21T14:31:53;31.70;30.10
1135;DHT22;556;53.550;10.048;2022-09-21T14:34:23;31.50;30.10
1135;DHT22;556;53.550;10.048;2022-09-21T14:36:55;30.90;29.70
1135;DHT22;556;53.550;10.048;2022-09-21T14:39:28;30.80;29.60
1135;DHT22;556;53.550;10.048;2022-09-21T14:42:00;30.70;29.60
1135;DHT22;556;53.550;10.048;2022-09-21T14:44:31;30.70;29.40
1135;DHT22;556;53.550;10.048;2022-09-21T14:47:14;30.90;29.90
1135;DHT22;556;53.550;10.048;2022-09-21T14:50:07;31.30;29.60
1135;DHT22;556;53.550;10.048;2022-09-21T14:52:46;31.90;29.30
1135;DHT22;556;53.550;10.048;2022-09-21T14:55:23;32.60;29.30
1135;DHT22;556;53.550;10.048;2022-09-21T14:58:05;33.20;28.90
1135;DHT22;556;53.550;10.048;2022-09-21T15:00:39;33.90;28.10
1135;DHT22;556;53.550;10.048;2022-09-21T15:03:29;34.10;28.90
1135;DHT22;556;53.550;10.048;2022-09-21T15:06:10;34.30;27.70
1135;DHT22;556;53.550;10.048;2022-09-21T15:09:02;34.40;28.10
1135;DHT22;556;53.550;10.048;2022-09-21T15:11:57;34.50;28.40
1135;DHT22;556;53.550;10.048;2022-09-21T15:14:32;35.10;27.30
1135;DHT22;556;53.550;10.048;2022-09-21T15:17:17;35.10;27.40
1135;DHT22;556;53.550;10.048;2022-09-21T15:19:49;34.60;27.00
1135;DHT22;556;53.550;10.048;2022-09-21T15:22:19;34.60;27.00
1135;DHT22;556;53.550;10.048;2022-09-21T15:24:49;34.50;27.20
1135;DHT22;556;53.550;10.048;2022-09-21T15:27:18;34.20;26.80
1135;DHT22;556;53.550;10.048;2022-09-21T15:29:49;34.10;27.00
1135;DHT22;556;53.550;10.048;2022-09-21T15:32:31;34.30;27.00
1135;DHT22;556;53.550;10.048;2022-09-21T15:35:04;34.60;26.60
1135;DHT22;556;53.550;10.048;2022-09-21T15:37:34;34.70;26.50
1135;DHT22;556;53.550;10.048;2022-09-21T15:40:04;34.80;25.90
1135;DHT22;556;53.550;10.048;2022-09-21T15:42:38;34.80;26.20
1135;DHT22;556;53.550;10.048;2022-09-21T15:45:15;34.70;25.50
1135;DHT22;556;53.550;10.048;2022-09-21T15:47:44;34.70;25.90
1135;DHT22;556;53.550;10.048;2022-09-21T15:50:12;34.70;25.90
1135;DHT22;556;53.550;10.048;2022-09-21T15:52:44;34.60;25.80
1135;DHT22;556;53.550;10.048;2022-09-21T15:55:17;34.30;25.50
1135;DHT22;556;53.550;10.048;2022-09-21T15:57:48;34.10;25.50
1135;DHT22;556;53.550;10.048;2022-09-21T16:00:20;33.80;25.20
1135;DHT22;556;53.550;10.048;2022-09-21T16:02:58;33.80;26.00
1135;DHT22;556;53.550;10.048;2022-09-21T16:05:42;33.80;25.40
1135;DHT22;556;53.550;10.048;2022-09-21T16:08:25;33.90;24.90
1135;DHT22;556;53.550;10.048;2022-09-21T16:11:11;34.00;24.80
1135;DHT22;556;53.550;10.048;2022-09-21T16:13:38;34.10;25.10
1135;DHT22;556;53.550;10.048;2022-09-21T16:16:26;33.80;25.30
1135;DHT22;556;53.550;10.048;2022-09-21T16:18:56;33.60;25.20
1135;DHT22;556;53.550;10.048;2022-09-21T16:21:26;33.20;24.80
1135;DHT22;556;53.550;10.048;2022-09-21T16:23:55;33.00;25.20
1135;DHT22;556;53.550;10.048;2022-09-21T16:26:25;32.70;25.30
1135;DHT22;556;53.550;10.048;2022-09-21T16:31:41;32.10;25.40
1135;DHT22;556;53.550;10.048;2022-09-21T16:34:29;31.90;25.10
1135;DHT22;556;53.550;10.048;2022-09-21T16:37:20;31.80;25.40
1135;DHT22;556;53.550;10.048;2022-09-21T16:39:49;31.60;25.90
1135;DHT22;556;53.550;10.048;2022-09-21T16:42:16;31.50;25.00
1135;DHT22;556;53.550;10.048;2022-09-21T16:44:45;31.40;25.10
1135;DHT22;556;53.550;10.048;2022-09-21T16:47:13;31.30;25.50
1135;DHT22;556;53.550;10.048;2022-09-21T16:49:42;30.80;25.10
1135;DHT22;556;53.550;10.048;2022-09-21T16:52:09;30.70;25.50
1135;DHT22;556;53.550;10.048;2022-09-21T16:54:36;30.50;25.60
1135;DHT22;556;53.550;10.048;2022-09-21T16:57:05;30.30;25.70
1135;DHT22;556;53.550;10.048;2022-09-21T16:59:33;29.60;25.50
1135;DHT22;556;53.550;10.048;2022-09-21T17:02:01;29.40;25.90
1135;DHT22;556;53.550;10.048;2022-09-21T17:04:32;28.90;26.00
1135;DHT22;556;53.550;10.048;2022-09-21T17:07:00;28.20;25.80
1135;DHT22;556;53.550;10.048;2022-09-21T17:09:31;27.80;26.30
1135;DHT22;556;53.550;10.048;2022-09-21T17:11:59;27.10;26.70
1135;DHT22;556;53.550;10.048;2022-09-21T17:14:28;26.40;27.00
1135;DHT22;556;53.550;10.048;2022-09-21T17:17:02;25.60;27.30
1135;DHT22;556;53.550;10.048;2022-09-21T17:19:30;24.90;27.60
1135;DHT22;556;53.550;10.048;2022-09-21T17:21:57;24.20;27.70
1135;DHT22;556;53.550;10.048;2022-09-21T17:24:26;23.40;27.60
1135;DHT22;556;53.550;10.048;2022-09-21T17:26:53;23.20;28.00
1135;DHT22;556;53.550;10.048;2022-09-21T17:29:22;22.80;28.10
1135;DHT22;556;53.550;10.048;2022-09-21T17:31:53;22.50;28.30